Time;durP1;ratioP1;P1;durP2;ratioP2;P2;SDS_P1;SDS_P2;PMS_P1;PMS_P2;Temp;Humidity;BMP_temperature;BMP_pressure;BME280_temperature;BME280_humidity;BME280_pressure;Samples;Min_cycle;Max_cycle;Signal;HPM_P1;HPM_P2
2022/03/23 00:02:12;;;;;;;51.45;30.40;;;;;;;4.64;53.37;102288.97;5073757;28;20464;-63
2022/03/23 00:04:39;;;;;;;55.95;31.90;;;;;;;4.62;53.53;102288.03;5072078;28;20043;-63
2022/03/23 00:07:04;;;;;;;56.67;31.83;;;;;;;4.64;53.43;102278.56;5074170;28;20055;-62
2022/03/23 00:09:30;;;;;;;51.63;29.65;;;;;;;4.62;53.60;102282.81;5072027;28;21543;-62
2022/03/23 00:11:55;;;;;;;57.60;28.30;;;;;;;4.68;53.56;102280.44;5074140;28;20033;-62
2022/03/23 00:14:20;;;;;;;71.35;37.10;;;;;;;4.74;53.64;102277.13;5073736;28;20520;-62
2022/03/23 00:16:46;;;;;;;72.47;38.08;;;;;;;4.73;53.61;102271.88;5072250;28;20048;-62
2022/03/23 00:19:11;;;;;;;64.70;34.17;;;;;;;4.72;53.66;102277.94;5073585;28;20117;-62
2022/03/23 00:21:38;;;;;;;58.95;32.08;;;;;;;4.72;53.57;102272.72;5073425;28;20036;-63
2022/03/23 00:24:05;;;;;;;54.63;29.70;;;;;;;4.73;53.65;102269.28;5072672;28;20032;-63
2022/03/23 00:26:30;;;;;;;57.05;31.27;;;;;;;4.69;53.69;102266.56;5071792;28;20040;-63
2022/03/23 00:28:56;;;;;;;55.67;31.77;;;;;;;4.62;53.95;102274.13;5073870;28;20021;-62
2022/03/23 00:31:22;;;;;;;60.20;30.70;;;;;;;4.60;53.93;102270.63;5072467;28;20119;-63
2022/03/23 00:33:51;;;;;;;63.88;36.00;;;;;;;4.48;54.44;102254.59;5072417;28;20033;-63
2022/03/23 00:36:17;;;;;;;62.35;33.13;;;;;;;4.43;54.47;102260.53;5055217;28;20056;-63
2022/03/23 00:38:43;;;;;;;65.93;34.92;;;;;;;4.37;54.47;102264.63;5071952;28;20074;-62
2022/03/23 00:41:09;;;;;;;63.15;35.13;;;;;;;4.32;54.82;102259.28;5071311;28;20067;-62
2022/03/23 00:43:35;;;;;;;59.28;30.42;;;;;;;4.33;54.85;102260.16;5072290;28;20468;-63
2022/03/23 00:46:01;;;;;;;54.28;31.00;;;;;;;4.26;55.11;102256.47;5072414;28;20516;-63
2022/03/23 00:48:27;;;;;;;56.88;31.50;;;;;;;4.27;55.02;102260.84;5071535;28;20039;-63
2022/03/23 00:50:53;;;;;;;63.95;33.70;;;;;;;4.18;55.32;102261.41;5072386;28;20040;-63
2022/03/23 00:53:18;;;;;;;65.22;34.67;;;;;;;4.11;55.66;102254.22;5072910;28;20039;-63
2022/03/23 00:55:44;;;;;;;64.60;35.33;;;;;;;4.10;55.72;102249.84;5073495;28;20116;-62
2022/03/23 00:58:10;;;;;;;59.58;33.00;;;;;;;4.11;55.84;102243.81;5073157;28;20082;-63
2022/03/23 01:00:35;;;;;;;62.65;33.88;;;;;;;4.12;55.73;102249.91;5072257;28;20035;-62
2022/03/23 01:03:02;;;;;;;55.97;30.48;;;;;;;4.11;55.82;102243.81;5073260;28;20064;-63
2022/03/23 01:05:28;;;;;;;62.72;35.25;;;;;;;4.15;55.56;102234.41;5072254;28;20056;-63
2022/03/23 01:07:54;;;;;;;63.13;35.53;;;;;;;4.15;55.48;102237.03;5072991;28;20052;-63
2022/03/23 01:10:20;;;;;;;57.13;31.02;;;;;;;4.15;55.45;102231.81;5068468;28;20033;-62
2022/03/23 01:12:47;;;;;;;58.63;33.78;;;;;;;4.14;55.56;102228.31;5053781;28;20040;-63
2022/03/23 01:15:15;;;;;;;61.03;33.13;;;;;;;4.15;55.49;102229.22;5073403;28;20056;-62
2022/03/23 01:17:41;;;;;;;59.30;34.50;;;;;;;4.12;55.47;102229.09;5071613;28;20119;-64
2022/03/23 01:20:09;;;;;;;57.15;33.03;;;;;;;4.10;55.57;102223.81;5052694;28;20135;-62
2022/03/23 01:22:36;;;;;;;54.30;31.00;;;;;;;4.14;55.35;102222.22;5072383;28;20089;-62
2022/03/23 01:25:03;;;;;;;57.03;32.33;;;;;;;4.16;55.53;102221.44;5071330;28;20024;-62
2022/03/23 01:27:28;;;;;;;71.93;37.90;;;;;;;4.16;55.28;102218.84;5054675;28;20400;-63
2022/03/23 01:29:54;;;;;;;57.65;32.83;;;;;;;4.18;55.46;102224.09;5073545;28;20028;-63
2022/03/23 01:32:19;;;;;;;69.30;38.00;;;;;;;4.08;55.33;102222.91;5072685;28;20059;-62
2022/03/23 01:34:45;;;;;;;65.43;36.50;;;;;;;3.98;55.56;102219.91;5072827;28;20062;-62
2022/03/23 01:37:10;;;;;;;61.55;34.17;;;;;;;3.94;55.76;102213.72;5072761;28;20028;-63
2022/03/23 01:39:35;;;;;;;67.70;36.92;;;;;;;3.87;55.77;102211.75;5071892;28;20032;-62
2022/03/23 01:42:01;;;;;;;64.72;34.85;;;;;;;3.81;56.13;102206.34;5073035;28;20039;-62
2022/03/23 01:44:27;;;;;;;61.58;32.72;;;;;;;3.75;56.22;102207.03;5072586;28;20038;-63
2022/03/23 01:47:07;;;;;;;77.28;44.30;;;;;;;3.68;57.11;102207.63;5073052;28;20086;-63
2022/03/23 01:49:53;;;;;;;76.13;41.15;;;;;;;3.63;56.67;102203.97;5072836;28;20036;-62
2022/03/23 01:52:22;;;;;;;73.05;38.55;;;;;;;3.62;56.62;102197.00;5089526;28;20036;-64
2022/03/23 01:54:48;;;;;;;56.13;32.40;;;;;;;3.62;56.45;102199.59;5076673;28;20453;-62
2022/03/23 01:57:16;;;;;;;63.42;34.53;;;;;;;3.61;56.89;102198.72;5074500;28;20066;-63
2022/03/23 01:59:42;;;;;;;72.10;38.83;;;;;;;3.65;56.48;102199.72;5076601;28;20030;-63
2022/03/23 02:02:11;;;;;;;69.30;37.33;;;;;;;3.60;56.96;102196.97;5076526;28;20032;-62
2022/03/23 02:04:37;;;;;;;73.72;37.88;;;;;;;3.57;56.73;102194.25;5074753;28;20127;-62
2022/03/23 02:07:05;;;;;;;74.30;39.75;;;;;;;3.57;56.76;102194.25;5058731;28;20098;-62
2022/03/23 02:09:32;;;;;;;75.25;40.22;;;;;;;3.59;56.93;102187.41;5075933;28;20036;-62
2022/03/23 02:12:01;;;;;;;73.22;38.40;;;;;;;3.58;56.79;102193.41;5058510;28;20123;-64
2022/03/23 02:14:27;;;;;;;117.53;57.53;;;;;;;3.52;57.29;102184.53;5070867;28;20033;-64
2022/03/23 02:16:53;;;;;;;108.68;54.65;;;;;;;3.48;57.17;102182.66;5055112;28;20029;-63
2022/03/23 02:19:20;;;;;;;105.63;53.85;;;;;;;3.46;57.25;102175.66;5067823;28;20120;-62
2022/03/23 02:21:47;;;;;;;78.50;39.80;;;;;;;3.51;56.92;102183.66;5089423;28;20451;-64
2022/03/23 02:24:14;;;;;;;83.38;43.40;;;;;;;3.53;56.95;102183.69;5088442;28;20036;-64
2022/03/23 02:26:41;;;;;;;121.47;58.40;;;;;;;3.51;57.05;102170.66;5059713;28;20047;-64
2022/03/23 02:29:08;;;;;;;156.57;75.07;;;;;;;3.49;57.15;102182.69;5054833;28;20538;-62
2022/03/23 02:31:34;;;;;;;104.30;49.20;;;;;;;3.50;56.89;102178.38;5045209;28;20040;-64
2022/03/23 02:34:00;;;;;;;77.75;39.55;;;;;;;3.51;56.72;102175.84;5058171;28;20032;-64
2022/03/23 02:36:26;;;;;;;64.78;35.20;;;;;;;3.49;56.87;102174.88;5074264;28;20392;-63
2022/03/23 02:38:51;;;;;;;70.90;38.30;;;;;;;3.44;57.16;102173.84;5074457;28;20036;-62
2022/03/23 02:41:18;;;;;;;64.63;32.75;;;;;;;3.40;57.29;102178.03;5075396;28;20174;-64
2022/03/23 02:43:44;;;;;;;62.38;34.42;;;;;;;3.31;57.23;102167.34;5076095;28;20040;-64
2022/03/23 02:46:17;;;;;;;73.97;39.22;;;;;;;3.28;57.50;102176.72;5070361;28;20041;-62
2022/03/23 02:48:43;;;;;;;71.60;38.13;;;;;;;3.22;57.77;102167.84;5063133;28;20069;-62
2022/03/23 02:51:09;;;;;;;87.63;43.15;;;;;;;3.22;57.62;102167.84;5075714;28;20037;-62
2022/03/23 03:02:25;;;;;;;85.28;41.95;;;;;;;3.09;58.03;102169.94;5075387;28;20090;-64
2022/03/23 03:04:51;;;;;;;80.22;40.90;;;;;;;3.13;57.65;102171.84;5073985;28;20063;-64
2022/03/23 03:07:18;;;;;;;60.20;33.67;;;;;;;3.17;57.59;102169.41;5074312;28;20060;-62
2022/03/23 03:09:44;;;;;;;68.43;36.63;;;;;;;3.21;57.28;102171.28;5074105;28;20041;-62
2022/03/23 03:12:11;;;;;;;75.60;38.72;;;;;;;3.19;57.42;102170.38;5074625;28;20033;-64
2022/03/23 03:14:37;;;;;;;64.53;35.28;;;;;;;3.27;57.36;102169.72;5074807;28;20066;-62
2022/03/23 03:17:03;;;;;;;78.95;41.08;;;;;;;3.26;57.19;102165.38;5057285;28;20064;-62
2022/03/23 03:19:28;;;;;;;89.10;43.20;;;;;;;3.21;57.38;102170.41;5074715;28;20059;-62
2022/03/23 03:21:54;;;;;;;116.88;53.25;;;;;;;3.22;57.49;102165.25;5074354;28;20472;-62
2022/03/23 03:24:20;;;;;;;82.07;42.72;;;;;;;3.24;57.42;102164.44;5073891;28;20468;-62
2022/03/23 03:26:47;;;;;;;107.53;53.25;;;;;;;3.27;57.16;102160.25;5074286;28;20036;-62
2022/03/23 03:29:12;;;;;;;91.78;44.35;;;;;;;3.25;57.15;102161.00;5073747;28;20040;-62
2022/03/23 03:31:38;;;;;;;111.75;53.38;;;;;;;3.19;57.24;102157.38;5074197;28;20082;-62
2022/03/23 03:34:03;;;;;;;99.00;48.38;;;;;;;3.15;57.34;102154.56;5074751;28;20499;-63
2022/03/23 03:36:29;;;;;;;90.30;45.25;;;;;;;3.08;57.57;102161.28;5074029;28;20468;-62
2022/03/23 03:38:54;;;;;;;97.32;43.88;;;;;;;3.03;57.74;102157.59;5072902;28;20032;-62
2022/03/23 03:41:20;;;;;;;60.22;34.20;;;;;;;3.02;57.55;102148.06;5073799;28;20032;-62
2022/03/23 03:43:46;;;;;;;70.93;35.05;;;;;;;3.07;57.31;102146.53;5073445;28;20047;-62
2022/03/23 03:46:11;;;;;;;59.58;33.20;;;;;;;3.11;57.15;102153.63;5069725;28;20025;-62
2022/03/23 03:48:38;;;;;;;59.08;32.33;;;;;;;3.11;57.19;102153.63;5054733;28;20029;-62
2022/03/23 03:51:06;;;;;;;73.90;38.50;;;;;;;3.14;57.08;102147.63;5055503;28;20033;-62
2022/03/23 03:53:32;;;;;;;114.15;52.67;;;;;;;3.17;56.96;102156.41;5088403;28;20036;-62
2022/03/23 03:55:57;;;;;;;103.93;47.97;;;;;;;3.22;56.95;102156.56;5073204;28;20033;-63
2022/03/23 03:58:23;;;;;;;100.22;47.63;;;;;;;3.20;56.98;102150.47;5052648;28;20334;-63
2022/03/23 04:00:49;;;;;;;88.72;42.35;;;;;;;3.21;57.15;102153.09;5052994;28;20037;-63
2022/03/23 04:03:14;;;;;;;76.88;40.75;;;;;;;3.24;56.69;102148.88;5073328;28;20039;-63
2022/03/23 04:05:40;;;;;;;87.75;43.75;;;;;;;3.22;56.75;102144.47;5074312;28;20033;-64
2022/03/23 04:08:05;;;;;;;83.40;41.63;;;;;;;3.29;56.58;102142.09;5073969;28;20119;-64
2022/03/23 04:10:31;;;;;;;78.13;38.85;;;;;;;3.30;56.64;102146.47;5072252;28;20043;-63
2022/03/23 04:12:57;;;;;;;85.30;42.83;;;;;;;3.34;56.46;102146.63;5074183;28;20043;-64
2022/03/23 04:15:24;;;;;;;70.03;37.33;;;;;;;3.36;56.44;102150.19;5073614;28;20031;-64
2022/03/23 04:17:51;;;;;;;98.82;47.40;;;;;;;3.36;56.31;102149.31;5072642;28;20060;-64
2022/03/23 04:20:17;;;;;;;95.15;44.88;;;;;;;3.33;56.64;102149.19;5073510;28;20042;-63
2022/03/23 04:22:42;;;;;;;81.40;40.30;;;;;;;3.29;56.48;102143.00;5074040;28;20036;-63
2022/03/23 04:25:09;;;;;;;82.18;41.47;;;;;;;3.26;56.61;102142.00;5072841;28;20040;-63
2022/03/23 04:27:43;;;;;;;70.50;37.05;;;;;;;3.29;56.50;102147.31;5072534;28;20439;-63
2022/03/23 04:30:09;;;;;;;62.20;34.20;;;;;;;3.36;56.23;102138.91;5073945;28;20060;-64
2022/03/23 04:32:35;;;;;;;64.90;34.08;;;;;;;3.33;56.22;102141.38;5051907;28;20041;-64
2022/03/23 04:35:00;;;;;;;61.50;32.75;;;;;;;3.35;56.09;102137.13;5053613;28;20048;-64
2022/03/23 04:37:25;;;;;;;49.50;29.65;;;;;;;3.29;56.01;102142.09;5059511;28;20029;-64
2022/03/23 04:39:51;;;;;;;63.70;32.63;;;;;;;3.20;56.35;102138.34;5073724;28;20098;-64
2022/03/23 04:42:17;;;;;;;56.70;32.50;;;;;;;3.16;56.64;102141.66;5073016;28;20040;-63
2022/03/23 04:44:42;;;;;;;64.63;33.72;;;;;;;3.14;56.63;102143.31;5073769;28;20119;-63
2022/03/23 04:47:08;;;;;;;60.55;32.85;;;;;;;3.13;56.69;102145.88;5073573;28;20495;-64
2022/03/23 04:49:33;;;;;;;49.90;29.35;;;;;;;3.09;56.80;102139.66;5073763;28;20036;-64
2022/03/23 04:51:58;;;;;;;58.30;32.35;;;;;;;3.05;57.06;102149.88;5073048;28;20085;-64
2022/03/23 04:54:24;;;;;;;74.00;37.53;;;;;;;3.01;57.01;102145.41;5073157;28;20039;-64
2022/03/23 04:56:49;;;;;;;79.30;37.80;;;;;;;2.97;57.09;102139.22;5073438;28;20487;-64
2022/03/23 04:59:15;;;;;;;77.82;41.25;;;;;;;2.95;57.46;102144.38;5072037;28;20114;-64
2022/03/23 05:01:40;;;;;;;93.18;44.80;;;;;;;2.96;57.56;102146.13;5055409;28;20135;-64
2022/03/23 05:04:06;;;;;;;101.75;48.58;;;;;;;3.00;57.49;102143.66;5073744;28;20037;-64
2022/03/23 05:06:32;;;;;;;90.20;43.53;;;;;;;3.08;57.04;102142.22;5068604;28;20036;-66
2022/03/23 05:08:57;;;;;;;77.70;40.95;;;;;;;3.14;56.89;102143.31;5068478;28;20045;-66
2022/03/23 05:11:23;;;;;;;70.88;36.50;;;;;;;3.18;56.78;102142.59;5072511;28;20025;-66
2022/03/23 05:13:49;;;;;;;65.95;36.17;;;;;;;3.30;56.46;102136.97;5073152;28;20442;-65
2022/03/23 05:16:18;;;;;;;55.03;31.15;;;;;;;3.42;55.72;102139.09;5072190;28;20518;-66
2022/03/23 05:18:43;;;;;;;54.70;31.08;;;;;;;3.50;55.60;102141.97;5073374;28;20098;-66
2022/03/23 05:21:08;;;;;;;53.80;30.02;;;;;;;3.57;55.34;102137.06;5071844;28;20464;-66
2022/03/23 05:23:34;;;;;;;55.38;30.48;;;;;;;3.65;55.40;102143.41;5072861;28;20056;-66
2022/03/23 05:26:00;;;;;;;53.58;30.85;;;;;;;3.75;55.14;102138.50;5071801;28;20093;-66
2022/03/23 05:28:26;;;;;;;58.20;30.60;;;;;;;3.79;55.18;102137.78;5070628;28;20037;-66
2022/03/23 05:30:51;;;;;;;64.00;33.40;;;;;;;3.86;54.82;102135.44;5057112;28;20362;-68
2022/03/23 05:33:17;;;;;;;55.50;30.55;;;;;;;3.93;54.79;102132.22;5075852;28;20460;-66
2022/03/23 05:35:42;;;;;;;66.38;34.47;;;;;;;3.98;54.64;102129.75;5075894;28;20097;-66
2022/03/23 05:38:08;;;;;;;55.17;29.77;;;;;;;4.03;54.80;102133.44;5076188;28;20484;-66
2022/03/23 05:40:34;;;;;;;59.63;30.65;;;;;;;4.12;54.66;102123.31;5077247;28;20036;-66
2022/03/23 05:42:59;;;;;;;53.70;30.23;;;;;;;4.20;54.54;102137.44;5075301;28;20041;-66
2022/03/23 05:45:25;;;;;;;80.43;41.13;;;;;;;4.34;54.27;102129.19;5076973;28;20365;-66
2022/03/23 05:47:53;;;;;;;76.05;38.70;;;;;;;4.45;53.98;102130.41;5076425;28;20047;-66
2022/03/23 05:50:20;;;;;;;55.28;31.95;;;;;;;4.62;53.64;102130.94;5072951;28;20040;-66
2022/03/23 05:52:45;;;;;;;65.50;33.80;;;;;;;4.77;53.37;102133.13;5075156;28;20043;-67
2022/03/23 05:55:11;;;;;;;57.47;31.10;;;;;;;4.87;53.01;102130.84;5074679;28;20123;-65
2022/03/23 05:57:37;;;;;;;55.13;29.48;;;;;;;4.97;52.61;102131.09;5071701;28;20399;-65
2022/03/23 06:00:06;;;;;;;62.17;31.95;;;;;;;5.03;52.58;102121.75;5045070;28;20033;-67
2022/03/23 06:02:31;;;;;;;142.57;73.85;;;;;;;5.15;52.33;102124.72;5075560;28;20035;-67
2022/03/23 06:04:57;;;;;;;92.50;52.10;;;;;;;5.34;52.13;102122.59;5076555;28;20044;-67
2022/03/23 06:07:22;;;;;;;115.13;58.88;;;;;;;5.49;51.60;102122.13;5076543;28;20040;-66
2022/03/23 06:09:47;;;;;;;67.65;36.70;;;;;;;5.60;51.23;102128.53;5076711;28;20032;-66
2022/03/23 06:12:14;;;;;;;63.63;35.95;;;;;;;5.69;51.03;102126.16;5076053;28;20032;-66
2022/03/23 06:14:44;;;;;;;52.63;29.20;;;;;;;5.79;50.94;102122.06;5058351;28;20028;-67
2022/03/23 06:17:13;;;;;;;52.58;29.90;;;;;;;5.87;50.77;102131.84;5071409;28;20097;-67
2022/03/23 06:19:38;;;;;;;53.33;30.17;;;;;;;5.99;50.77;102140.88;5089739;28;20029;-67
2022/03/23 06:22:05;;;;;;;74.90;36.88;;;;;;;6.00;51.32;102140.91;5075897;28;20040;-67
2022/03/23 06:24:31;;;;;;;71.03;35.03;;;;;;;6.18;51.06;102143.06;5060177;28;20033;-68
2022/03/23 06:26:56;;;;;;;57.70;30.40;;;;;;;6.39;50.59;102134.91;5073552;28;20154;-67
2022/03/23 06:29:21;;;;;;;59.28;29.88;;;;;;;6.51;50.08;102140.41;5076017;28;20357;-66
2022/03/23 06:31:47;;;;;;;52.70;29.67;;;;;;;6.66;49.72;102130.31;5076102;28;20091;-66
2022/03/23 06:34:12;;;;;;;68.15;39.47;;;;;;;6.85;49.29;102131.56;5075958;28;20043;-67
2022/03/23 06:36:38;;;;;;;101.65;58.85;;;;;;;7.04;49.07;102124.13;5076659;28;20044;-67
2022/03/23 06:39:04;;;;;;;77.53;45.17;;;;;;;7.24;48.69;102127.13;5074580;28;20254;-66
2022/03/23 06:41:30;;;;;;;66.82;39.70;;;;;;;7.41;48.31;102134.44;5074586;28;20035;-66
2022/03/23 06:43:56;;;;;;;88.40;47.47;;;;;;;7.57;48.16;102140.84;5074656;28;20037;-66
2022/03/23 06:46:21;;;;;;;66.78;36.97;;;;;;;7.74;47.74;102129.81;5075901;28;20139;-66
2022/03/23 06:48:47;;;;;;;52.42;28.58;;;;;;;7.87;47.75;102142.28;5075773;28;20033;-67
2022/03/23 06:51:14;;;;;;;47.58;27.60;;;;;;;7.98;47.41;102145.06;5075310;28;20353;-66
2022/03/23 06:53:40;;;;;;;49.22;27.17;;;;;;;8.12;47.21;102143.56;5070549;28;20037;-66
2022/03/23 06:56:05;;;;;;;45.15;26.50;;;;;;;8.25;46.92;102144.63;5069896;28;20440;-64
2022/03/23 06:58:31;;;;;;;49.65;26.80;;;;;;;8.39;46.62;102137.91;5075712;28;20098;-64
2022/03/23 07:00:57;;;;;;;50.60;26.83;;;;;;;8.55;46.55;102139.91;5075271;28;20384;-64
2022/03/23 07:03:23;;;;;;;57.20;29.58;;;;;;;8.69;46.36;102147.06;5057479;28;20048;-64
2022/03/23 07:05:49;;;;;;;47.63;25.15;;;;;;;8.81;45.39;102142.00;5071060;28;20036;-64
2022/03/23 07:10:58;;;;;;;37.53;21.90;;;;;;;9.16;43.47;102141.59;5074978;28;20043;-64
2022/03/23 07:13:24;;;;;;;41.53;22.50;;;;;;;9.29;42.37;102140.84;5074239;28;20032;-64
2022/03/23 07:15:49;;;;;;;35.00;20.65;;;;;;;9.47;41.92;102145.44;5073524;28;20525;-65
2022/03/23 07:18:14;;;;;;;34.58;20.80;;;;;;;9.63;41.62;102143.00;5074507;28;20060;-64
2022/03/23 07:20:40;;;;;;;36.85;18.92;;;;;;;9.70;41.12;102143.06;5074230;28;20028;-64
2022/03/23 07:23:05;;;;;;;33.80;20.63;;;;;;;9.79;40.79;102145.78;5074054;28;20451;-65
2022/03/23 07:25:31;;;;;;;40.85;22.20;;;;;;;9.90;40.64;102140.63;5074392;28;20081;-64
2022/03/23 07:27:56;;;;;;;43.47;21.73;;;;;;;10.00;40.44;102143.34;5074735;28;20119;-64
2022/03/23 07:30:23;;;;;;;40.38;22.30;;;;;;;10.10;40.31;102142.56;5067154;28;20073;-64
2022/03/23 07:32:50;;;;;;;37.85;22.00;;;;;;;10.29;40.08;102146.25;5072742;28;20067;-65
2022/03/23 07:35:15;;;;;;;36.15;21.63;;;;;;;10.31;39.75;102141.88;5056493;28;20124;-65
2022/03/23 07:37:40;;;;;;;34.08;20.88;;;;;;;10.43;39.80;102137.59;5072010;28;20469;-64
2022/03/23 07:40:06;;;;;;;36.92;20.65;;;;;;;10.62;39.08;102147.34;5073136;28;20032;-64
2022/03/23 07:42:32;;;;;;;33.42;19.90;;;;;;;10.76;39.03;102144.78;5073405;28;20041;-64
2022/03/23 07:44:57;;;;;;;28.83;17.58;;;;;;;10.88;38.54;102147.47;5072959;28;20037;-64
2022/03/23 07:47:22;;;;;;;31.77;17.95;;;;;;;10.98;37.82;102136.16;5070936;28;20033;-64
2022/03/23 07:49:48;;;;;;;30.63;18.15;;;;;;;11.08;37.69;102132.66;5072642;28;20033;-64
2022/03/23 07:52:14;;;;;;;29.52;17.50;;;;;;;11.18;37.21;102136.25;5076640;28;20422;-64
2022/03/23 07:54:39;;;;;;;29.30;17.15;;;;;;;11.31;37.09;102138.03;5068633;28;20044;-67
2022/03/23 07:57:05;;;;;;;26.30;17.30;;;;;;;11.39;36.61;102132.78;5072757;28;20085;-65
2022/03/23 07:59:31;;;;;;;32.28;18.65;;;;;;;11.52;36.63;102121.41;5079398;28;20440;-64
2022/03/23 08:01:57;;;;;;;26.98;16.52;;;;;;;11.63;35.90;102139.00;5089595;28;20115;-65
2022/03/23 08:04:22;;;;;;;26.98;17.98;;;;;;;11.77;35.93;102134.63;5073730;28;20047;-64
2022/03/23 08:06:47;;;;;;;26.23;16.35;;;;;;;11.84;35.96;102134.66;5073441;28;20119;-64
2022/03/23 08:09:13;;;;;;;25.98;16.20;;;;;;;11.95;35.71;102126.75;5072631;28;20036;-65
2022/03/23 08:11:38;;;;;;;24.98;16.20;;;;;;;12.04;35.58;102126.75;5073079;28;20044;-64
2022/03/23 08:14:04;;;;;;;27.27;15.43;;;;;;;12.16;35.36;102125.00;5074301;28;20403;-64
2022/03/23 08:16:29;;;;;;;27.10;16.40;;;;;;;12.25;35.35;102119.75;5062742;28;20067;-65
2022/03/23 08:18:55;;;;;;;23.20;14.73;;;;;;;12.36;35.31;102122.34;5050561;28;20488;-64
2022/03/23 08:21:22;;;;;;;28.10;15.73;;;;;;;12.48;34.98;102115.28;5070338;28;20369;-65
2022/03/23 08:23:48;;;;;;;23.90;14.57;;;;;;;12.56;34.88;102113.50;5066125;28;20119;-64
2022/03/23 08:26:14;;;;;;;25.17;15.88;;;;;;;12.65;34.96;102119.69;5066389;28;20025;-64
2022/03/23 08:28:44;;;;;;;27.92;16.42;;;;;;;12.72;34.40;102121.41;5062493;28;20408;-64
2022/03/23 08:31:10;;;;;;;24.83;15.18;;;;;;;12.79;34.45;102118.72;5065125;28;20032;-64
2022/03/23 08:33:36;;;;;;;25.42;14.93;;;;;;;12.88;34.37;102112.53;5068631;28;20028;-65
2022/03/23 08:36:04;;;;;;;25.30;13.98;;;;;;;12.98;34.15;102116.03;5067662;28;20132;-64
2022/03/23 08:38:29;;;;;;;26.15;16.17;;;;;;;13.06;33.45;102123.03;5066507;28;20024;-63
2022/03/23 08:40:55;;;;;;;28.00;16.50;;;;;;;13.13;33.49;102112.47;5063220;28;20028;-63
2022/03/23 08:43:20;;;;;;;31.75;19.17;;;;;;;13.21;33.23;102110.66;5067832;28;20044;-64
2022/03/23 08:45:47;;;;;;;26.00;16.63;;;;;;;13.31;32.92;102113.25;5067442;28;20066;-64
2022/03/23 08:48:12;;;;;;;29.02;17.45;;;;;;;13.40;32.97;102112.31;5070283;28;20464;-64
2022/03/23 08:50:40;;;;;;;27.40;15.75;;;;;;;13.46;32.92;102116.72;5072080;28;20119;-64
2022/03/23 08:53:06;;;;;;;24.20;14.57;;;;;;;13.54;32.55;102115.78;5070517;28;20123;-64
2022/03/23 08:55:31;;;;;;;25.08;14.20;;;;;;;13.61;32.55;102115.75;5070762;28;20060;-66
2022/03/23 08:57:57;;;;;;;25.50;13.82;;;;;;;13.67;32.51;102116.56;5071273;28;20076;-64
2022/03/23 09:00:23;;;;;;;24.73;14.60;;;;;;;13.73;32.46;102115.66;5070918;28;20044;-64
2022/03/23 09:02:48;;;;;;;29.33;14.20;;;;;;;13.83;32.28;102117.31;5054091;28;20029;-64
2022/03/23 09:05:15;;;;;;;25.45;16.05;;;;;;;13.85;31.68;102120.84;5069717;28;20059;-65
2022/03/23 09:07:42;;;;;;;26.42;15.48;;;;;;;13.89;31.34;102119.06;5069602;28;20063;-64
2022/03/23 09:10:10;;;;;;;26.23;15.73;;;;;;;14.00;31.29;102114.53;5054932;28;20036;-64
2022/03/23 09:12:36;;;;;;;21.20;12.98;;;;;;;14.10;30.89;102116.25;5072821;28;20074;-64
2022/03/23 09:15:03;;;;;;;25.38;14.55;;;;;;;14.09;29.84;102116.25;5071516;28;20025;-64
2022/03/23 09:17:30;;;;;;;23.00;14.52;;;;;;;14.19;30.40;102116.16;5051658;28;20121;-64
2022/03/23 09:19:56;;;;;;;25.48;14.27;;;;;;;14.25;30.31;102115.22;5068419;28;20052;-64
2022/03/23 09:22:22;;;;;;;21.63;14.00;;;;;;;14.27;29.98;102116.06;5071171;28;20074;-65
2022/03/23 09:24:47;;;;;;;21.08;13.70;;;;;;;14.35;29.84;102110.72;5071851;28;20048;-65
2022/03/23 09:27:14;;;;;;;21.05;12.75;;;;;;;14.41;29.92;102100.97;5070974;28;20033;-65
2022/03/23 09:29:40;;;;;;;22.80;14.00;;;;;;;14.47;29.89;102114.09;5069837;28;20050;-65
2022/03/23 09:32:09;;;;;;;22.90;14.82;;;;;;;14.50;29.40;102110.59;5071408;28;20036;-65
2022/03/23 09:34:36;;;;;;;20.55;14.07;;;;;;;14.62;29.65;102105.19;5071378;28;20036;-64
2022/03/23 09:39:47;;;;;;;20.20;12.52;;;;;;;14.77;29.59;102109.44;5065556;28;20067;-64
2022/03/23 09:42:13;;;;;;;22.77;14.35;;;;;;;14.76;29.29;102099.72;5072315;28;20460;-64
2022/03/23 09:44:40;;;;;;;23.58;14.75;;;;;;;14.77;29.15;102104.13;5071918;28;20032;-66
2022/03/23 09:47:06;;;;;;;20.15;13.02;;;;;;;14.86;29.11;102100.50;5050331;28;20041;-64
2022/03/23 09:49:31;;;;;;;24.17;14.57;;;;;;;14.86;28.40;102100.50;5068342;28;20036;-66
2022/03/23 09:51:58;;;;;;;20.40;13.80;;;;;;;14.94;28.62;102096.00;5070665;28;20438;-65
2022/03/23 09:54:24;;;;;;;23.88;14.43;;;;;;;14.95;28.51;102097.72;5057916;28;20392;-66
2022/03/23 09:56:50;;;;;;;20.65;13.55;;;;;;;15.10;28.51;102096.66;5068889;28;20040;-64
2022/03/23 09:59:16;;;;;;;18.75;13.13;;;;;;;15.09;27.85;102094.91;5053015;28;20048;-64
2022/03/23 10:01:47;;;;;;;22.35;12.90;;;;;;;15.19;28.46;102083.28;5069684;28;20040;-64
2022/03/23 10:04:12;;;;;;;18.90;12.43;;;;;;;15.31;28.31;102085.75;5070525;28;20025;-64
2022/03/23 10:07:03;;;;;;;20.45;14.18;;;;;;;15.32;26.93;102084.91;5067560;28;20392;-65
2022/03/23 10:09:44;;;;;;;26.27;16.02;;;;;;;15.21;27.78;102081.50;5071406;28;20037;-64
2022/03/23 10:12:46;;;;;;;22.33;14.60;;;;;;;15.24;26.74;102082.34;5072474;28;20482;-63
2022/03/23 10:15:38;;;;;;;20.33;14.45;;;;;;;15.28;26.10;102086.72;5075925;28;20059;-64
2022/03/23 10:18:41;;;;;;;23.67;14.18;;;;;;;15.42;26.21;102082.97;5060218;28;20067;-64
2022/03/23 10:21:07;;;;;;;23.67;14.07;;;;;;;15.45;27.47;102078.50;5071185;28;20054;-65
2022/03/23 10:23:33;;;;;;;23.58;14.23;;;;;;;15.46;27.07;102077.59;5067944;28;20024;-64
2022/03/23 10:26:10;;;;;;;21.77;14.57;;;;;;;15.47;26.02;102076.69;5075948;28;20040;-64
2022/03/23 10:28:36;;;;;;;26.42;12.93;;;;;;;15.59;26.98;102070.34;5077472;28;20045;-63
2022/03/23 10:31:16;;;;;;;18.23;12.68;;;;;;;15.66;26.34;102061.44;5074369;28;20039;-64
2022/03/23 10:33:43;;;;;;;17.48;11.40;;;;;;;15.74;26.77;102063.97;5074727;28;20082;-64
2022/03/23 10:36:09;;;;;;;20.50;14.18;;;;;;;15.81;26.62;102060.31;5074631;28;20041;-63
2022/03/23 10:38:40;;;;;;;21.10;13.27;;;;;;;15.84;26.27;102064.66;5074586;28;20438;-64
2022/03/23 10:41:11;;;;;;;20.55;14.30;;;;;;;15.90;26.09;102057.50;5074423;28;20036;-64
2022/03/23 10:43:38;;;;;;;21.63;13.45;;;;;;;15.95;26.38;102055.63;5074531;28;20028;-65
2022/03/23 10:46:12;;;;;;;19.10;11.95;;;;;;;16.03;26.04;102050.19;5073862;28;20017;-65
2022/03/23 10:48:50;;;;;;;16.17;12.13;;;;;;;16.03;25.33;102055.50;5074308;28;20525;-65
2022/03/23 10:51:26;;;;;;;18.45;13.18;;;;;;;16.00;25.53;102050.28;5074595;28;20056;-65
2022/03/23 10:53:51;;;;;;;17.80;13.38;;;;;;;16.08;26.35;102058.06;5074032;28;20032;-65
2022/03/23 10:56:29;;;;;;;19.35;12.65;;;;;;;16.12;25.42;102038.56;5075512;28;20031;-65
2022/03/23 10:59:17;;;;;;;20.20;12.32;;;;;;;16.25;25.32;102043.59;5073947;28;20068;-64
2022/03/23 11:01:57;;;;;;;20.33;12.82;;;;;;;16.19;24.71;102042.84;5074279;28;20111;-65
2022/03/23 11:04:23;;;;;;;20.13;13.50;;;;;;;16.30;25.70;102047.94;5075386;28;20135;-65
2022/03/23 11:06:49;;;;;;;17.60;11.85;;;;;;;16.31;25.29;102034.66;5073926;28;20028;-65
2022/03/23 11:17:47;;;;;;;15.77;11.45;;;;;;;16.45;24.92;102029.97;5074899;28;20044;-64
2022/03/23 11:20:15;;;;;;;17.60;11.80;;;;;;;16.53;24.66;102023.63;5075057;28;20033;-64
2022/03/23 11:22:41;;;;;;;15.80;11.63;;;;;;;16.53;24.59;102023.63;5073244;28;20032;-64
2022/03/23 11:25:06;;;;;;;19.85;13.00;;;;;;;16.43;24.59;102028.22;5073952;28;20066;-64
2022/03/23 11:27:33;;;;;;;19.38;12.57;;;;;;;16.47;24.44;102021.97;5074584;28;20035;-65
2022/03/23 11:30:00;;;;;;;15.75;10.68;;;;;;;16.66;24.86;102022.47;5056822;28;20147;-65
2022/03/23 11:32:34;;;;;;;14.70;10.90;;;;;;;16.70;24.42;102014.41;5056569;28;20024;-64
2022/03/23 11:35:02;;;;;;;22.55;12.00;;;;;;;16.77;24.96;102011.66;5073266;28;20404;-64
2022/03/23 11:37:29;;;;;;;14.07;11.30;;;;;;;16.80;24.59;102012.47;5073290;28;20078;-64